Ellsworth, MI (49729)

5:25 PM EDT on August 03, 2015 (GMT -0400)
MesoWest | | Change Station
CLOSE
Current Station
Personal Weather Station
Location: Eastport, MI
Elevation: 609 ft
Nearby Weather Stations

Elev 609 ft 45.11 °N, 85.35 °W | Updated 35 minutes ago

Overcast
Overcast
70 °F
Feels Like 70 °F
N
5
Wind Variable Wind from SSW
Gusts 8.0 mph

Today
High -- | Low -- °F
--% Chance of Precip.
Yesterday
High -- | Low -- °F
Precip. -- in
6:27 AM 9:05 PM
Waning Gibbous, 84% visible
Pressure 29.77 in
Visibility 10.0 miles
Clouds Mostly Cloudy 6000 ft
Overcast 9500 ft
Dew Point 53 °F
Humidity 56%
Rainfall in
Snow Depth Not available.
UV 1 out of 12
Pollen 5.50 out of 12
Air Quality Not available.
Flu Activity Not available.
METAR KACB 032115Z AUTO 00000KT 10SM BKN060 OVC095 21/11 A2977 RMK AO2 T02110109

More Conditions Fewer Conditions

Pressure 29.77 in
Visibility 10.0 miles
Clouds Mostly Cloudy 6000 ft
Overcast 9500 ft
Dew Point 53 °F
Humidity 56%
Rainfall in
Snow Depth Not available.
UV 1 out of 12
Pollen 5.50 out of 12
Air Quality Not available.
Flu Activity Not available.
METAR KACB 032115Z AUTO 00000KT 10SM BKN060 OVC095 21/11 A2977 RMK AO2 T02110109

More Conditions Fewer Conditions

Nowcast | as of 5:00 PM EDT on August 3, 2015

At 6 PM...mostly cloudy. Scattered showers and slight chance of thunderstorms. Temperature 70. West winds 10 mph. At 8 PM...mostly cloudy. Chance of showers. Temperature 66. Northwest winds 7 mph. At 10 PM...mostly cloudy. Chance of showers. Temperature 60. Light winds. At 12 am...mostly cloudy. Chance of showers. Temperature 56. Light winds.

×

10-Day Weather Forecast

×

Almanac

Astronomy

Aug. 03, 2015 Rise Set
Actual Time
Civil Twilight
Nautical Twilight
Astronomical Twilight
Moon
Length of Visible Light
Length of Day
Tomorrow will be .
, % of the Moon is Illuminated

Today's Extremes

State Highs State Lows

Community

WunderPhotos

Upload Photos

1,843,770 photos uploaded!

WunderBlogs® & News

Nearby

Air Quality

  Air Quality AQ Index Pollutant
Not available.

Snow Depth

Station Depth Elevation

Earthquake Activity

City Distance Mag. Time & Date
Minimum magnitude displayed is 2.5.

Coastal Water Temperatures

Place Temperature

Stations

Nearby Weather Stations

Station Location Temp. Windchill Dew Point Humidity Wind Precip. Elev Updated Type